Time;durP1;ratioP1;P1;durP2;ratioP2;P2;SDS_P1;SDS_P2;PMS_P1;PMS_P2;Temp;Humidity;BMP_temperature;BMP_pressure;BME280_temperature;BME280_humidity;BME280_pressure;Samples;Min_cycle;Max_cycle;Signal;HPM_P1;HPM_P2
2022/08/11 00:00:14;;;;;;;;;;;;;;;;;;5015090;28;20555;-76
2022/08/11 00:02:41;;;;;;;;;;;;;;;;;;5022866;28;19967;-77
2022/08/11 00:05:07;;;;;;;;;;;;;;;;;;5017271;28;20006;-77
2022/08/11 00:07:33;;;;;;;;;;;;;;;;;;5021026;28;19967;-77
2022/08/11 00:09:59;;;;;;;;;;;;;;;;;;5041798;28;19968;-74
2022/08/11 00:12:26;;;;;;;;;;;;;;;;;;5026899;28;19944;-75
2022/08/11 00:14:52;;;;;;;;;;;;;;;;;;5038923;28;19975;-75
2022/08/11 00:17:18;;;;;;;;;;;;;;;;;;5042718;28;19958;-75
2022/08/11 00:19:44;;;;;;;;;;;;;;;;;;5042511;28;19940;-78
2022/08/11 00:22:10;;;;;;;;;;;;;;;;;;5041900;28;19960;-75
2022/08/11 00:24:37;;;;;;;;;;;;;;;;;;5043493;28;20493;-76
2022/08/11 00:27:03;;;;;;;;;;;;;;;;;;5044467;28;19960;-77
2022/08/11 00:29:29;;;;;;;;;;;;;;;;;;5037731;28;19964;-77
2022/08/11 00:31:55;;;;;;;;;;;;;;;;;;5043248;28;19976;-77
2022/08/11 00:34:21;;;;;;;;;;;;;;;;;;5045745;28;19963;-77
2022/08/11 00:36:47;;;;;;;;;;;;;;;;;;5037967;28;20018;-77
2022/08/11 00:39:14;;;;;;;;;;;;;;;;;;5044546;28;20368;-77
2022/08/11 00:41:40;;;;;;;;;;;;;;;;;;5044242;28;19952;-77
2022/08/11 00:44:06;;;;;;;;;;;;;;;;;;5037621;28;19944;-76
2022/08/11 00:46:32;;;;;;;;;;;;;;;;;;5042586;28;19956;-76
2022/08/11 00:48:59;;;;;;;;;;;;;;;;;;5044611;28;20403;-75
2022/08/11 00:51:25;;;;;;;;;;;;;;;;;;5036483;28;19944;-76
2022/08/11 00:53:51;;;;;;;;;;;;;;;;;;5044567;28;19960;-77
2022/08/11 00:56:18;;;;;;;;;;;;;;;;;;5026620;28;20397;-76
2022/08/11 00:58:44;;;;;;;;;;;;;;;;;;5044684;28;19952;-78
2022/08/11 01:01:10;;;;;;;;;;;;;;;;;;5040576;28;19959;-78
2022/08/11 01:03:36;;;;;;;;;;;;;;;;;;5043397;28;19956;-78
2022/08/11 01:06:03;;;;;;;;;;;;;;;;;;5040337;28;20635;-78
2022/08/11 01:08:29;;;;;;;;;;;;;;;;;;5039289;28;19956;-78
2022/08/11 01:10:55;;;;;;;;;;;;;;;;;;5042412;28;19971;-77
2022/08/11 01:13:22;;;;;;;;;;;;;;;;;;5025552;28;20003;-77
2022/08/11 01:15:49;;;;;;;;;;;;;;;;;;5039341;28;20377;-77
2022/08/11 01:18:16;;;;;;;;;;;;;;;;;;5042316;28;19956;-78
2022/08/11 01:20:42;;;;;;;;;;;;;;;;;;5043089;28;20382;-76
2022/08/11 01:23:08;;;;;;;;;;;;;;;;;;5042982;28;19956;-76
2022/08/11 01:25:34;;;;;;;;;;;;;;;;;;5045253;28;19944;-76
2022/08/11 01:28:01;;;;;;;;;;;;;;;;;;5040443;28;20039;-76
2022/08/11 01:30:27;;;;;;;;;;;;;;;;;;5045906;28;19952;-77
2022/08/11 01:32:54;;;;;;;;;;;;;;;;;;5036446;28;19959;-77
2022/08/11 01:35:20;;;;;;;;;;;;;;;;;;5044486;28;19994;-76
2022/08/11 01:37:46;;;;;;;;;;;;;;;;;;5039548;28;19951;-77
2022/08/11 01:40:12;;;;;;;;;;;;;;;;;;5042315;28;19967;-76
2022/08/11 01:45:24;;;;;;;;;;;;;;;;;;5042058;28;19948;-76
2022/08/11 01:47:50;;;;;;;;;;;;;;;;;;5044089;28;19960;-76
2022/08/11 01:50:16;;;;;;;;;;;;;;;;;;5042424;28;19912;-78
2022/08/11 01:52:42;;;;;;;;;;;;;;;;;;5040633;28;19960;-77
2022/08/11 01:55:08;;;;;;;;;;;;;;;;;;5042454;28;19960;-77
2022/08/11 01:57:35;;;;;;;;;;;;;;;;;;5045698;28;19959;-77
2022/08/11 02:00:01;;;;;;;;;;;;;;;;;;5044932;28;20455;-76
2022/08/11 02:02:46;;;;;;;;;;;;;;;;;;5029596;28;19949;-78
2022/08/11 02:05:12;;;;;;;;;;;;;;;;;;5041361;28;19921;-78
2022/08/11 02:07:38;;;;;;;;;;;;;;;;;;5044264;28;19948;-78
2022/08/11 02:11:29;;;;;;;;;;;;;;;;;;5029623;28;19952;-77
2022/08/11 02:12:53;;;;;;;;;;;;;;;;;;5042367;28;19959;-77
2022/08/11 02:15:20;;;;;;;;;;;;;;;;;;5044992;28;19959;-77
2022/08/11 02:17:46;;;;;;;;;;;;;;;;;;5047784;28;20671;-78
2022/08/11 02:25:42;;;;;;;;;;;;;;;;;;5044039;28;20667;-77
2022/08/11 02:28:08;;;;;;;;;;;;;;;;;;5044856;28;19961;-77
2022/08/11 02:30:34;;;;;;;;;;;;;;;;;;5029407;28;20010;-78
2022/08/11 02:35:46;;;;;;;;;;;;;;;;;;5040625;28;19960;-78
2022/08/11 02:38:12;;;;;;;;;;;;;;;;;;5046903;28;19972;-78
2022/08/11 02:40:38;;;;;;;;;;;;;;;;;;5037541;28;20705;-77
2022/08/11 02:43:04;;;;;;;;;;;;;;;;;;5045487;28;19966;-77
2022/08/11 02:45:30;;;;;;;;;;;;;;;;;;5046889;28;20325;-77
2022/08/11 02:50:41;;;;;;;;;;;;;;;;;;5042011;28;21470;-78
2022/08/11 02:53:07;;;;;;;;;;;;;;;;;;5044872;28;19952;-75
2022/08/11 02:55:33;;;;;;;;;;;;;;;;;;5046722;28;20384;-77
2022/08/11 02:58:00;;;;;;;;;;;;;;;;;;5041127;28;19971;-75
2022/08/11 03:00:26;;;;;;;;;;;;;;;;;;5044223;28;20050;-76
2022/08/11 03:02:52;;;;;;;;;;;;;;;;;;5046903;28;19956;-76
2022/08/11 03:05:19;;;;;;;;;;;;;;;;;;5037536;28;20627;-77
2022/08/11 03:07:46;;;;;;;;;;;;;;;;;;5043977;28;19952;-78
2022/08/11 03:10:12;;;;;;;;;;;;;;;;;;5030848;28;19952;-78
2022/08/11 03:18:08;;;;;;;;;;;;;;;;;;5045722;28;19956;-78
2022/08/11 03:20:34;;;;;;;;;;;;;;;;;;5038267;28;19944;-77
2022/08/11 03:23:01;;;;;;;;;;;;;;;;;;5043544;28;19956;-77
2022/08/11 03:25:30;;;;;;;;;;;;;;;;;;5039911;28;19952;-77
2022/08/11 03:27:56;;;;;;;;;;;;;;;;;;5035339;28;20032;-77
2022/08/11 03:30:22;;;;;;;;;;;;;;;;;;5035072;28;19964;-75
2022/08/11 03:34:00;;;;;;;;;;;;;;;;;;5041789;28;19960;-77
2022/08/11 03:35:35;;;;;;;;;;;;;;;;;;5035167;28;20386;-77
2022/08/11 03:38:01;;;;;;;;;;;;;;;;;;5037081;28;19960;-77
2022/08/11 03:43:12;;;;;;;;;;;;;;;;;;5044119;28;19955;-76
2022/08/11 03:45:38;;;;;;;;;;;;;;;;;;5041069;28;19964;-76
2022/08/11 03:48:04;;;;;;;;;;;;;;;;;;5027309;28;19986;-77
2022/08/11 03:50:30;;;;;;;;;;;;;;;;;;5041503;28;20006;-78
2022/08/11 03:52:56;;;;;;;;;;;;;;;;;;5045318;28;19944;-75
2022/08/11 03:55:23;;;;;;;;;;;;;;;;;;5043086;28;19960;-76
2022/08/11 03:57:49;;;;;;;;;;;;;;;;;;5045517;28;19975;-77
2022/08/11 04:00:15;;;;;;;;;;;;;;;;;;5023223;28;20127;-75
2022/08/11 04:02:41;;;;;;;;;;;;;;;;;;5032869;28;20862;-76
2022/08/11 04:05:07;;;;;;;;;;;;;;;;;;5042045;28;20397;-77
2022/08/11 04:07:34;;;;;;;;;;;;;;;;;;5041603;28;19952;-76
2022/08/11 04:10:00;;;;;;;;;;;;;;;;;;5042312;28;19960;-76
2022/08/11 04:12:26;;;;;;;;;;;;;;;;;;5023611;28;19964;-78
2022/08/11 04:17:37;;;;;;;;;;;;;;;;;;5040187;28;20382;-76
2022/08/11 04:20:03;;;;;;;;;;;;;;;;;;5042843;28;19952;-76
2022/08/11 04:22:29;;;;;;;;;;;;;;;;;;5041313;28;20395;-77
2022/08/11 04:24:56;;;;;;;;;;;;;;;;;;5039104;28;19960;-78
2022/08/11 04:27:22;;;;;;;;;;;;;;;;;;5037073;28;20048;-81
2022/08/11 04:29:48;;;;;;;;;;;;;;;;;;5042903;28;20058;-78
2022/08/11 04:32:14;;;;;;;;;;;;;;;;;;5042414;28;19955;-79
2022/08/11 04:34:41;;;;;;;;;;;;;;;;;;5043546;28;20055;-79
2022/08/11 04:40:11;;;;;;;;;;;;;;;;;;4943791;28;19968;-78
2022/08/11 04:45:23;;;;;;;;;;;;;;;;;;5041690;28;19951;-78
2022/08/11 05:01:53;;;;;;;;;;;;;;;;;;5043469;28;19928;-77
2022/08/11 05:07:04;;;;;;;;;;;;;;;;;;5045017;28;20430;-77
2022/08/11 05:09:30;;;;;;;;;;;;;;;;;;5039558;28;19964;-77
2022/08/11 05:11:56;;;;;;;;;;;;;;;;;;5025319;28;20002;-77
2022/08/11 05:36:23;;;;;;;;;;;;;;;;;;5045306;28;19960;-77
2022/08/11 05:58:04;;;;;;;;;;;;;;;;;;5049156;28;19944;-76
2022/08/11 06:00:30;;;;;;;;;;;;;;;;;;5026463;28;20001;-78
2022/08/11 06:02:57;;;;;;;;;;;;;;;;;;5046796;28;20381;-78
2022/08/11 06:05:24;;;;;;;;;;;;;;;;;;5044558;28;20101;-77
2022/08/11 06:07:50;;;;;;;;;;;;;;;;;;5035232;28;20461;-77
2022/08/11 06:10:16;;;;;;;;;;;;;;;;;;5027242;28;19968;-77
2022/08/11 06:12:42;;;;;;;;;;;;;;;;;;5045979;28;19959;-77
2022/08/11 06:15:08;;;;;;;;;;;;;;;;;;5047085;28;19960;-77
2022/08/11 06:17:35;;;;;;;;;;;;;;;;;;5043971;28;19948;-78
2022/08/11 06:20:01;;;;;;;;;;;;;;;;;;5044521;28;19952;-76
2022/08/11 06:22:27;;;;;;;;;;;;;;;;;;5039892;28;19955;-76
2022/08/11 06:24:53;;;;;;;;;;;;;;;;;;5048435;28;19952;-78
2022/08/11 06:27:20;;;;;;;;;;;;;;;;;;5045408;28;19976;-77
2022/08/11 06:29:46;;;;;;;;;;;;;;;;;;5046591;28;19964;-78
2022/08/11 06:32:12;;;;;;;;;;;;;;;;;;5024507;28;19952;-77
2022/08/11 06:34:39;;;;;;;;;;;;;;;;;;5045413;28;19957;-76
2022/08/11 06:37:06;;;;;;;;;;;;;;;;;;5043875;28;20393;-77
2022/08/11 06:39:32;;;;;;;;;;;;;;;;;;5048897;28;19955;-77
2022/08/11 06:41:58;;;;;;;;;;;;;;;;;;5030106;28;20522;-77
2022/08/11 06:44:24;;;;;;;;;;;;;;;;;;5045749;28;19968;-74
2022/08/11 06:46:51;;;;;;;;;;;;;;;;;;5029982;28;20003;-74
2022/08/11 06:52:03;;;;;;;;;;;;;;;;;;5041375;28;19913;-76
2022/08/11 06:54:29;;;;;;;;;;;;;;;;;;5042175;28;19944;-76
2022/08/11 07:02:25;;;;;;;;;;;;;;;;;;5040206;28;19952;-75
2022/08/11 07:04:51;;;;;;;;;;;;;;;;;;5042219;28;20013;-74
2022/08/11 07:15:41;;;;;;;;;;;;;;;;;;5040214;28;19921;-74
2022/08/11 07:29:08;;;;;;;;;;;;;;;;;;5041097;28;19952;-75
2022/08/11 07:31:34;;;;;;;;;;;;;;;;;;5045406;28;19940;-75
2022/08/11 07:34:00;;;;;;;;;;;;;;;;;;5034322;28;19952;-75
2022/08/11 07:36:27;;;;;;;;;;;;;;;;;;5016295;28;19960;-75
2022/08/11 07:38:53;;;;;;;;;;;;;;;;;;5035928;28;20392;-75
2022/08/11 07:41:19;;;;;;;;;;;;;;;;;;5012944;28;19956;-74
2022/08/11 07:43:48;;;;;;;;;;;;;;;;;;5028414;28;20385;-75
2022/08/11 07:54:29;;;;;;;;;;;;;;;;;;5036686;28;19913;-75
2022/08/11 07:56:55;;;;;;;;;;;;;;;;;;5045063;28;19948;-75
2022/08/11 08:18:36;;;;;;;;;;;;;;;;;;5041551;28;21313;-75
2022/08/11 08:21:10;;;;;;;;;;;;;;;;;;5040354;28;19956;-77
2022/08/11 08:23:36;;;;;;;;;;;;;;;;;;5040940;28;19957;-76
2022/08/11 08:26:03;;;;;;;;;;;;;;;;;;5041594;28;20037;-76
2022/08/11 08:28:29;;;;;;;;;;;;;;;;;;5046627;28;20384;-75
2022/08/11 08:30:55;;;;;;;;;;;;;;;;;;5019884;28;19963;-74
2022/08/11 08:33:21;;;;;;;;;;;;;;;;;;5042167;28;20396;-75
2022/08/11 08:35:48;;;;;;;;;;;;;;;;;;5029914;28;19944;-74
2022/08/11 08:38:14;;;;;;;;;;;;;;;;;;5044214;28;20010;-75
2022/08/11 08:40:40;;;;;;;;;;;;;;;;;;5040890;28;19960;-76
2022/08/11 08:43:07;;;;;;;;;;;;;;;;;;5044133;28;19952;-75
2022/08/11 08:45:33;;;;;;;;;;;;;;;;;;5043810;28;20023;-75
2022/08/11 08:48:00;;;;;;;;;;;;;;;;;;5042145;28;19961;-75
2022/08/11 08:51:32;;;;;;;;;;;;;;;;;;5039078;28;19960;-75
2022/08/11 08:53:12;;;;;;;;;;;;;;;;;;5032046;28;19960;-75
2022/08/11 08:55:39;;;;;;;;;;;;;;;;;;5039225;28;19964;-75
2022/08/11 08:58:06;;;;;;;;;;;;;;;;;;5044536;28;19948;-74
2022/08/11 09:00:33;;;;;;;;;;;;;;;;;;5046528;28;19960;-75
2022/08/11 09:03:00;;;;;;;;;;;;;;;;;;5049480;28;20303;-74
2022/08/11 09:05:27;;;;;;;;;;;;;;;;;;5047340;28;20025;-74
2022/08/11 09:07:53;;;;;;;;;;;;;;;;;;5046152;28;20019;-74
2022/08/11 09:10:19;;;;;;;;;;;;;;;;;;5045402;28;19939;-75
2022/08/11 09:12:45;;;;;;;;;;;;;;;;;;5045335;28;20396;-75
2022/08/11 09:15:11;;;;;;;;;;;;;;;;;;5027249;28;20069;-75
2022/08/11 09:17:38;;;;;;;;;;;;;;;;;;5047662;28;19979;-75
2022/08/11 09:20:04;;;;;;;;;;;;;;;;;;5041553;28;19969;-75
2022/08/11 09:28:00;;;;;;;;;;;;;;;;;;5048245;28;19957;-77
2022/08/11 09:30:26;;;;;;;;;;;;;;;;;;5045529;28;19972;-76
2022/08/11 09:32:56;;;;;;;;;;;;;;;;;;5041684;28;20054;-76
2022/08/11 09:35:23;;;;;;;;;;;;;;;;;;5047896;28;20456;-76
2022/08/11 09:40:34;;;;;;;;;;;;;;;;;;5038400;28;20047;-74
2022/08/11 09:45:45;;;;;;;;;;;;;;;;;;5047231;28;19956;-74
2022/08/11 09:48:11;;;;;;;;;;;;;;;;;;5045852;28;19956;-75
2022/08/11 09:50:38;;;;;;;;;;;;;;;;;;5041660;28;19968;-75
2022/08/11 09:53:05;;;;;;;;;;;;;;;;;;5028489;28;20407;-74
2022/08/11 09:55:31;;;;;;;;;;;;;;;;;;5045189;28;20333;-76
2022/08/11 09:58:12;;;;;;;;;;;;;;;;;;5049578;28;19952;-74
2022/08/11 10:00:39;;;;;;;;;;;;;;;;;;5042292;28;19960;-76
2022/08/11 10:03:05;;;;;;;;;;;;;;;;;;5045971;28;20027;-74
2022/08/11 10:08:18;;;;;;;;;;;;;;;;;;5032651;28;20369;-74
2022/08/11 10:10:44;;;;;;;;;;;;;;;;;;5045412;28;19964;-85
2022/08/11 10:13:10;;;;;;;;;;;;;;;;;;5020627;28;20042;-78
2022/08/11 10:15:39;;;;;;;;;;;;;;;;;;5048801;28;19956;-78
2022/08/11 10:20:50;;;;;;;;;;;;;;;;;;5049827;28;19940;-78
2022/08/11 10:28:47;;;;;;;;;;;;;;;;;;5051880;28;19960;-79
2022/08/11 10:34:02;;;;;;;;;;;;;;;;;;5046968;28;19959;-79
2022/08/11 10:36:28;;;;;;;;;;;;;;;;;;5045158;28;20489;-81
2022/08/11 10:38:54;;;;;;;;;;;;;;;;;;5050180;28;19917;-81
2022/08/11 10:44:05;;;;;;;;;;;;;;;;;;5046751;28;19960;-80
2022/08/11 10:49:16;;;;;;;;;;;;;;;;;;5036934;28;19960;-80
2022/08/11 10:59:58;;;;;;;;;;;;;;;;;;5046273;28;19928;-80
2022/08/11 11:02:26;;;;;;;;;;;;;;;;;;5045352;28;19964;-79
2022/08/11 11:04:52;;;;;;;;;;;;;;;;;;5046011;28;20612;-81
2022/08/11 11:07:19;;;;;;;;;;;;;;;;;;5039581;28;19956;-80
2022/08/11 11:09:45;;;;;;;;;;;;;;;;;;5042738;28;19971;-79
2022/08/11 11:18:00;;;;;;;;;;;;;;;;;;5038308;28;22060;-79
2022/08/11 11:20:26;;;;;;;;;;;;;;;;;;5041009;28;20921;-79
2022/08/11 11:22:52;;;;;;;;;;;;;;;;;;5043266;28;20002;-80
2022/08/11 11:25:18;;;;;;;;;;;;;;;;;;5039069;28;20573;-80
2022/08/11 11:27:44;;;;;;;;;;;;;;;;;;5028477;28;20018;-80
2022/08/11 11:30:11;;;;;;;;;;;;;;;;;;5046065;28;19952;-79
2022/08/11 11:32:38;;;;;;;;;;;;;;;;;;5044440;28;19960;-79
2022/08/11 11:35:04;;;;;;;;;;;;;;;;;;5045713;28;19916;-79
2022/08/11 11:37:30;;;;;;;;;;;;;;;;;;5041911;28;19953;-79
2022/08/11 11:39:57;;;;;;;;;;;;;;;;;;5040264;28;19955;-79
2022/08/11 11:42:23;;;;;;;;;;;;;;;;;;5040739;28;19960;-80
2022/08/11 11:44:49;;;;;;;;;;;;;;;;;;5046247;28;19948;-80
2022/08/11 11:47:16;;;;;;;;;;;;;;;;;;5046006;28;19917;-80
2022/08/11 11:49:43;;;;;;;;;;;;;;;;;;5042193;28;19960;-79
2022/08/11 11:52:09;;;;;;;;;;;;;;;;;;5040457;28;19955;-78
2022/08/11 11:54:35;;;;;;;;;;;;;;;;;;5045274;28;19992;-79
2022/08/11 12:01:14;;;;;;;;;;;;;;;;;;5041944;28;19964;-78
2022/08/11 12:02:32;;;;;;;;;;;;;;;;;;5043777;28;22213;-77
2022/08/11 12:05:00;;;;;;;;;;;;;;;;;;5041179;28;19949;-79
2022/08/11 12:10:38;;;;;;;;;;;;;;;;;;5035194;28;19932;-79
2022/08/11 12:15:49;;;;;;;;;;;;;;;;;;5038301;28;19956;-80
2022/08/11 12:18:15;;;;;;;;;;;;;;;;;;5005165;28;19964;-80
2022/08/11 12:20:41;;;;;;;;;;;;;;;;;;5022234;28;19917;-79
2022/08/11 12:28:38;;;;;;;;;;;;;;;;;;5041565;28;20454;-79
2022/08/11 12:31:05;;;;;;;;;;;;;;;;;;5037935;28;19964;-80
2022/08/11 12:33:31;;;;;;;;;;;;;;;;;;5045802;28;19963;-79
2022/08/11 12:35:57;;;;;;;;;;;;;;;;;;5045676;28;19916;-78
2022/08/11 12:38:23;;;;;;;;;;;;;;;;;;5026884;28;19952;-78
2022/08/11 12:46:19;;;;;;;;;;;;;;;;;;5042015;28;20381;-80
2022/08/11 12:54:16;;;;;;;;;;;;;;;;;;5041461;28;19913;-80
2022/08/11 13:04:59;;;;;;;;;;;;;;;;;;5042636;28;19960;-78
2022/08/11 13:07:26;;;;;;;;;;;;;;;;;;5041119;28;20397;-77
2022/08/11 13:09:52;;;;;;;;;;;;;;;;;;5026642;28;19960;-77
2022/08/11 13:15:03;;;;;;;;;;;;;;;;;;5042086;28;19960;-77
2022/08/11 13:17:29;;;;;;;;;;;;;;;;;;5042283;28;20398;-79
2022/08/11 13:19:55;;;;;;;;;;;;;;;;;;5044334;28;19960;-77
2022/08/11 13:22:23;;;;;;;;;;;;;;;;;;5045112;28;20294;-77
2022/08/11 13:24:49;;;;;;;;;;;;;;;;;;5044254;28;19960;-77
2022/08/11 13:27:16;;;;;;;;;;;;;;;;;;5026839;28;19956;-77
2022/08/11 13:29:45;;;;;;;;;;;;;;;;;;5040480;28;19972;-77
2022/08/11 13:32:11;;;;;;;;;;;;;;;;;;5036764;28;20022;-77
2022/08/11 13:34:41;;;;;;;;;;;;;;;;;;5038721;28;19990;-77
2022/08/11 13:37:07;;;;;;;;;;;;;;;;;;5038834;28;19952;-77
2022/08/11 13:39:33;;;;;;;;;;;;;;;;;;5040243;28;20441;-76
2022/08/11 13:41:59;;;;;;;;;;;;;;;;;;5038552;28;19952;-77
2022/08/11 13:44:28;;;;;;;;;;;;;;;;;;5024186;28;19956;-77
2022/08/11 13:46:55;;;;;;;;;;;;;;;;;;5048863;28;19960;-76
2022/08/11 13:49:21;;;;;;;;;;;;;;;;;;5046609;28;23210;-77
2022/08/11 13:51:47;;;;;;;;;;;;;;;;;;5043102;28;19986;-77
2022/08/11 13:54:14;;;;;;;;;;;;;;;;;;5042397;28;20333;-77
2022/08/11 13:56:40;;;;;;;;;;;;;;;;;;5032363;28;20676;-78
2022/08/11 13:59:07;;;;;;;;;;;;;;;;;;5045815;28;20028;-77
2022/08/11 14:01:33;;;;;;;;;;;;;;;;;;5043886;28;19917;-77
2022/08/11 14:03:59;;;;;;;;;;;;;;;;;;5043132;28;20357;-78
2022/08/11 14:06:25;;;;;;;;;;;;;;;;;;5044060;28;19963;-78
2022/08/11 14:08:52;;;;;;;;;;;;;;;;;;5047450;28;19967;-77
2022/08/11 14:14:03;;;;;;;;;;;;;;;;;;5040095;28;20397;-78
2022/08/11 14:16:30;;;;;;;;;;;;;;;;;;5045580;28;19940;-76
2022/08/11 14:18:56;;;;;;;;;;;;;;;;;;5044675;28;19956;-77
2022/08/11 14:24:07;;;;;;;;;;;;;;;;;;5045668;28;19956;-76
2022/08/11 14:26:37;;;;;;;;;;;;;;;;;;5045953;28;19955;-76
2022/08/11 14:29:03;;;;;;;;;;;;;;;;;;5043982;28;19956;-76
2022/08/11 14:31:30;;;;;;;;;;;;;;;;;;5040787;28;20374;-76
2022/08/11 14:33:58;;;;;;;;;;;;;;;;;;5047999;28;19957;-76
2022/08/11 14:36:24;;;;;;;;;;;;;;;;;;5044088;28;19960;-76
2022/08/11 14:38:50;;;;;;;;;;;;;;;;;;5042105;28;20385;-78
2022/08/11 14:47:04;;;;;;;;;;;;;;;;;;5058202;28;21296;-78
2022/08/11 14:49:31;;;;;;;;;;;;;;;;;;5062469;28;20357;-78
2022/08/11 14:51:57;;;;;;;;;;;;;;;;;;5055488;28;19959;-79
2022/08/11 14:57:08;;;;;;;;;;;;;;;;;;5057507;28;19913;-78
2022/08/11 14:59:34;;;;;;;;;;;;;;;;;;5056292;28;19913;-77
2022/08/11 15:04:45;;;;;;;;;;;;;;;;;;5049466;28;19932;-76
2022/08/11 15:07:12;;;;;;;;;;;;;;;;;;5054837;28;19921;-77
2022/08/11 15:09:39;;;;;;;;;;;;;;;;;;5057919;28;19929;-77
2022/08/11 15:12:08;;;;;;;;;;;;;;;;;;5054287;28;19919;-75
2022/08/11 15:17:19;;;;;;;;;;;;;;;;;;5052941;28;19921;-76
2022/08/11 15:25:16;;;;;;;;;;;;;;;;;;5056508;28;19917;-77
2022/08/11 15:38:41;;;;;;;;;;;;;;;;;;5056114;28;21252;-76
2022/08/11 15:46:37;;;;;;;;;;;;;;;;;;5054282;28;21331;-76
2022/08/11 15:49:03;;;;;;;;;;;;;;;;;;5055132;28;19917;-76
2022/08/11 15:51:29;;;;;;;;;;;;;;;;;;5054937;28;19921;-77
2022/08/11 15:53:57;;;;;;;;;;;;;;;;;;5040097;28;19939;-77
2022/08/11 15:56:23;;;;;;;;;;;;;;;;;;5039275;28;19940;-77
2022/08/11 16:04:20;;;;;;;;;;;;;;;;;;5054446;28;19917;-77
2022/08/11 16:06:47;;;;;;;;;;;;;;;;;;5055933;28;19916;-76
2022/08/11 16:09:13;;;;;;;;;;;;;;;;;;5050469;28;20731;-76
2022/08/11 16:11:39;;;;;;;;;;;;;;;;;;5050068;28;19925;-77
2022/08/11 16:16:51;;;;;;;;;;;;;;;;;;5042298;28;19944;-77
2022/08/11 16:19:18;;;;;;;;;;;;;;;;;;5042393;28;20115;-77
2022/08/11 16:21:44;;;;;;;;;;;;;;;;;;5044353;28;19952;-78
2022/08/11 16:24:10;;;;;;;;;;;;;;;;;;5042836;28;19972;-77
2022/08/11 16:26:37;;;;;;;;;;;;;;;;;;5043398;28;19983;-77
2022/08/11 16:29:03;;;;;;;;;;;;;;;;;;5038159;28;20371;-77
2022/08/11 16:31:29;;;;;;;;;;;;;;;;;;5041496;28;19968;-77
2022/08/11 16:33:55;;;;;;;;;;;;;;;;;;5043033;28;19913;-77
2022/08/11 16:39:06;;;;;;;;;;;;;;;;;;5037917;28;20445;-75
2022/08/11 16:47:32;;;;;;;;;;;;;;;;;;5044219;28;19936;-75
2022/08/11 16:50:08;;;;;;;;;;;;;;;;;;5044336;28;19928;-77
2022/08/11 16:52:44;;;;;;;;;;;;;;;;;;5040257;28;20420;-79
2022/08/11 16:55:20;;;;;;;;;;;;;;;;;;5040062;28;19927;-76
2022/08/11 17:00:51;;;;;;;;;;;;;;;;;;5042726;28;19921;-76
2022/08/11 17:13:07;;;;;;;;;;;;;;;;;;5022119;28;19956;-77
2022/08/11 17:14:43;;;;;;;;;;;;;;;;;;5043678;28;19956;-76
2022/08/11 17:17:09;;;;;;;;;;;;;;;;;;5041029;28;19952;-76
2022/08/11 17:19:36;;;;;;;;;;;;;;;;;;5041531;28;19957;-77
2022/08/11 17:24:50;;;;;;;;;;;;;;;;;;5043882;28;19952;-77
2022/08/11 17:27:16;;;;;;;;;;;;;;;;;;5045813;28;19956;-78
2022/08/11 17:29:42;;;;;;;;;;;;;;;;;;5046279;28;19967;-79
2022/08/11 17:37:38;;;;;;;;;;;;;;;;;;5046729;28;19952;-77
2022/08/11 17:40:04;;;;;;;;;;;;;;;;;;5047962;28;19960;-75
2022/08/11 17:50:49;;;;;;;;;;;;;;;;;;5043519;28;19964;-77
2022/08/11 18:01:34;;;;;;;;;;;;;;;;;;5038065;28;20418;-76
2022/08/11 18:04:00;;;;;;;;;;;;;;;;;;5045838;28;20618;-75
2022/08/11 18:06:28;;;;;;;;;;;;;;;;;;5042815;28;19957;-75
